sensor_id;sensor_type;location;lat;lon;timestamp;P1;durP1;ratioP1;P2;durP2;ratioP2
74799;SDS011;63326;45.088;7.658;2023-03-31T00:00:18;4.30;;;1.65;;
74799;SDS011;63326;45.088;7.658;2023-03-31T00:02:45;2.65;;;1.35;;
74799;SDS011;63326;45.088;7.658;2023-03-31T00:05:12;4.82;;;1.65;;
74799;SDS011;63326;45.088;7.658;2023-03-31T00:07:43;2.38;;;1.30;;
74799;SDS011;63326;45.088;7.658;2023-03-31T00:10:11;4.88;;;2.13;;
74799;SDS011;63326;45.088;7.658;2023-03-31T00:12:47;3.22;;;1.50;;
74799;SDS011;63326;45.088;7.658;2023-03-31T00:15:14;3.50;;;1.80;;
74799;SDS011;63326;45.088;7.658;2023-03-31T00:17:41;5.68;;;1.80;;
74799;SDS011;63326;45.088;7.658;2023-03-31T00:20:09;4.68;;;2.00;;
74799;SDS011;63326;45.088;7.658;2023-03-31T00:22:38;2.92;;;1.67;;
74799;SDS011;63326;45.088;7.658;2023-03-31T00:25:11;2.47;;;1.40;;
74799;SDS011;63326;45.088;7.658;2023-03-31T00:27:42;2.72;;;1.58;;
74799;SDS011;63326;45.088;7.658;2023-03-31T00:30:10;5.10;;;1.67;;
74799;SDS011;63326;45.088;7.658;2023-03-31T00:32:38;5.13;;;2.03;;
74799;SDS011;63326;45.088;7.658;2023-03-31T00:35:05;3.65;;;1.70;;
74799;SDS011;63326;45.088;7.658;2023-03-31T00:37:32;3.88;;;1.77;;
74799;SDS011;63326;45.088;7.658;2023-03-31T00:39:59;3.35;;;2.13;;
74799;SDS011;63326;45.088;7.658;2023-03-31T00:45:16;2.65;;;1.48;;
74799;SDS011;63326;45.088;7.658;2023-03-31T00:47:49;2.13;;;1.23;;
74799;SDS011;63326;45.088;7.658;2023-03-31T00:50:31;2.72;;;1.38;;
74799;SDS011;63326;45.088;7.658;2023-03-31T00:53:11;5.35;;;2.35;;
74799;SDS011;63326;45.088;7.658;2023-03-31T00:55:42;3.42;;;1.80;;
74799;SDS011;63326;45.088;7.658;2023-03-31T00:58:13;4.20;;;1.40;;
74799;SDS011;63326;45.088;7.658;2023-03-31T01:00:46;3.10;;;1.60;;
74799;SDS011;63326;45.088;7.658;2023-03-31T01:03:14;4.15;;;1.63;;
74799;SDS011;63326;45.088;7.658;2023-03-31T01:05:43;4.30;;;2.38;;
74799;SDS011;63326;45.088;7.658;2023-03-31T01:08:12;4.40;;;2.20;;
74799;SDS011;63326;45.088;7.658;2023-03-31T01:10:42;4.90;;;1.90;;
74799;SDS011;63326;45.088;7.658;2023-03-31T01:13:13;5.03;;;1.60;;
74799;SDS011;63326;45.088;7.658;2023-03-31T01:15:41;3.58;;;1.88;;
74799;SDS011;63326;45.088;7.658;2023-03-31T01:18:08;3.60;;;1.98;;
74799;SDS011;63326;45.088;7.658;2023-03-31T01:29:25;6.07;;;1.92;;
74799;SDS011;63326;45.088;7.658;2023-03-31T01:40:51;3.65;;;1.23;;
74799;SDS011;63326;45.088;7.658;2023-03-31T01:46:13;3.75;;;1.20;;
74799;SDS011;63326;45.088;7.658;2023-03-31T01:48:46;3.15;;;1.58;;
74799;SDS011;63326;45.088;7.658;2023-03-31T01:51:34;5.32;;;1.25;;
74799;SDS011;63326;45.088;7.658;2023-03-31T01:56:50;2.40;;;1.13;;
74799;SDS011;63326;45.088;7.658;2023-03-31T02:02:00;5.20;;;2.10;;
74799;SDS011;63326;45.088;7.658;2023-03-31T02:04:33;2.60;;;1.35;;
74799;SDS011;63326;45.088;7.658;2023-03-31T02:07:15;4.10;;;1.30;;
74799;SDS011;63326;45.088;7.658;2023-03-31T02:09:48;3.58;;;1.15;;
74799;SDS011;63326;45.088;7.658;2023-03-31T02:12:19;3.90;;;2.15;;
74799;SDS011;63326;45.088;7.658;2023-03-31T02:14:51;2.38;;;1.30;;
74799;SDS011;63326;45.088;7.658;2023-03-31T02:17:22;2.28;;;1.15;;
74799;SDS011;63326;45.088;7.658;2023-03-31T02:19:59;4.28;;;1.60;;
74799;SDS011;63326;45.088;7.658;2023-03-31T02:22:35;3.10;;;1.50;;
74799;SDS011;63326;45.088;7.658;2023-03-31T02:25:05;1.98;;;1.17;;
74799;SDS011;63326;45.088;7.658;2023-03-31T02:27:39;3.13;;;1.17;;
74799;SDS011;63326;45.088;7.658;2023-03-31T02:30:09;4.15;;;1.27;;
74799;SDS011;63326;45.088;7.658;2023-03-31T02:32:42;1.40;;;0.73;;
74799;SDS011;63326;45.088;7.658;2023-03-31T02:35:16;3.17;;;1.23;;
74799;SDS011;63326;45.088;7.658;2023-03-31T02:37:45;2.28;;;1.02;;
74799;SDS011;63326;45.088;7.658;2023-03-31T02:40:16;2.63;;;1.67;;
74799;SDS011;63326;45.088;7.658;2023-03-31T02:42:45;4.82;;;1.65;;
74799;SDS011;63326;45.088;7.658;2023-03-31T02:48:10;2.45;;;1.70;;
74799;SDS011;63326;45.088;7.658;2023-03-31T02:50:43;2.35;;;1.33;;
74799;SDS011;63326;45.088;7.658;2023-03-31T03:14:04;4.80;;;2.08;;
74799;SDS011;63326;45.088;7.658;2023-03-31T03:16:53;6.53;;;1.52;;
74799;SDS011;63326;45.088;7.658;2023-03-31T03:19:31;5.22;;;1.90;;
74799;SDS011;63326;45.088;7.658;2023-03-31T03:21:57;3.50;;;1.48;;
74799;SDS011;63326;45.088;7.658;2023-03-31T03:24:24;6.28;;;1.25;;
74799;SDS011;63326;45.088;7.658;2023-03-31T03:26:54;4.80;;;2.00;;
74799;SDS011;63326;45.088;7.658;2023-03-31T03:29:22;3.55;;;1.55;;
74799;SDS011;63326;45.088;7.658;2023-03-31T03:31:48;2.53;;;1.50;;
74799;SDS011;63326;45.088;7.658;2023-03-31T03:34:15;3.15;;;1.50;;
74799;SDS011;63326;45.088;7.658;2023-03-31T03:36:43;4.07;;;1.85;;
74799;SDS011;63326;45.088;7.658;2023-03-31T03:39:11;5.32;;;1.85;;
74799;SDS011;63326;45.088;7.658;2023-03-31T03:41:37;4.95;;;2.00;;
74799;SDS011;63326;45.088;7.658;2023-03-31T03:44:04;4.35;;;2.35;;
74799;SDS011;63326;45.088;7.658;2023-03-31T03:46:31;2.28;;;1.40;;
74799;SDS011;63326;45.088;7.658;2023-03-31T03:48:58;3.38;;;2.28;;
74799;SDS011;63326;45.088;7.658;2023-03-31T03:51:24;6.40;;;2.67;;
74799;SDS011;63326;45.088;7.658;2023-03-31T03:53:51;3.03;;;1.90;;
74799;SDS011;63326;45.088;7.658;2023-03-31T03:56:17;9.00;;;1.95;;
74799;SDS011;63326;45.088;7.658;2023-03-31T03:58:44;4.03;;;1.77;;
74799;SDS011;63326;45.088;7.658;2023-03-31T04:01:11;6.22;;;1.83;;
74799;SDS011;63326;45.088;7.658;2023-03-31T04:03:37;3.17;;;1.60;;
74799;SDS011;63326;45.088;7.658;2023-03-31T04:06:04;5.60;;;1.67;;
74799;SDS011;63326;45.088;7.658;2023-03-31T04:08:31;7.85;;;2.85;;
74799;SDS011;63326;45.088;7.658;2023-03-31T04:10:58;4.15;;;2.53;;
74799;SDS011;63326;45.088;7.658;2023-03-31T04:13:24;4.32;;;2.33;;
74799;SDS011;63326;45.088;7.658;2023-03-31T04:15:51;6.55;;;2.25;;
74799;SDS011;63326;45.088;7.658;2023-03-31T04:18:18;3.00;;;1.80;;
74799;SDS011;63326;45.088;7.658;2023-03-31T04:20:51;4.00;;;1.80;;
74799;SDS011;63326;45.088;7.658;2023-03-31T04:23:32;4.85;;;2.38;;
74799;SDS011;63326;45.088;7.658;2023-03-31T04:25:59;3.55;;;1.83;;
74799;SDS011;63326;45.088;7.658;2023-03-31T04:28:26;3.72;;;2.40;;
74799;SDS011;63326;45.088;7.658;2023-03-31T04:31:00;2.95;;;1.85;;
74799;SDS011;63326;45.088;7.658;2023-03-31T04:35:54;3.47;;;1.77;;
74799;SDS011;63326;45.088;7.658;2023-03-31T04:38:22;4.75;;;2.50;;
74799;SDS011;63326;45.088;7.658;2023-03-31T04:40:50;4.63;;;2.38;;
74799;SDS011;63326;45.088;7.658;2023-03-31T04:43:18;3.67;;;2.00;;
74799;SDS011;63326;45.088;7.658;2023-03-31T04:45:46;4.68;;;2.75;;
74799;SDS011;63326;45.088;7.658;2023-03-31T04:48:13;5.10;;;3.00;;
74799;SDS011;63326;45.088;7.658;2023-03-31T04:50:39;3.85;;;2.25;;
74799;SDS011;63326;45.088;7.658;2023-03-31T04:53:06;6.22;;;2.30;;
74799;SDS011;63326;45.088;7.658;2023-03-31T04:55:33;5.15;;;1.83;;
74799;SDS011;63326;45.088;7.658;2023-03-31T04:58:00;4.15;;;2.40;;
74799;SDS011;63326;45.088;7.658;2023-03-31T05:00:27;3.40;;;2.20;;
74799;SDS011;63326;45.088;7.658;2023-03-31T05:02:54;4.95;;;2.53;;
74799;SDS011;63326;45.088;7.658;2023-03-31T05:05:22;5.80;;;2.42;;
74799;SDS011;63326;45.088;7.658;2023-03-31T05:07:49;5.15;;;2.70;;
74799;SDS011;63326;45.088;7.658;2023-03-31T05:10:16;4.43;;;3.13;;
74799;SDS011;63326;45.088;7.658;2023-03-31T05:12:42;8.30;;;3.15;;
74799;SDS011;63326;45.088;7.658;2023-03-31T05:15:09;6.00;;;2.80;;
74799;SDS011;63326;45.088;7.658;2023-03-31T05:17:36;7.68;;;2.85;;
74799;SDS011;63326;45.088;7.658;2023-03-31T05:20:05;4.88;;;2.55;;
74799;SDS011;63326;45.088;7.658;2023-03-31T05:22:36;5.70;;;2.80;;
74799;SDS011;63326;45.088;7.658;2023-03-31T05:25:05;5.53;;;2.83;;
74799;SDS011;63326;45.088;7.658;2023-03-31T05:27:33;4.85;;;2.67;;
74799;SDS011;63326;45.088;7.658;2023-03-31T05:32:28;5.20;;;2.50;;
74799;SDS011;63326;45.088;7.658;2023-03-31T05:34:55;3.92;;;1.80;;
74799;SDS011;63326;45.088;7.658;2023-03-31T05:37:23;5.72;;;2.50;;
74799;SDS011;63326;45.088;7.658;2023-03-31T05:39:50;5.85;;;2.80;;
74799;SDS011;63326;45.088;7.658;2023-03-31T05:42:17;4.65;;;2.42;;
74799;SDS011;63326;45.088;7.658;2023-03-31T05:44:45;6.10;;;3.15;;
74799;SDS011;63326;45.088;7.658;2023-03-31T05:47:12;5.20;;;2.20;;
74799;SDS011;63326;45.088;7.658;2023-03-31T05:49:39;3.20;;;2.05;;
74799;SDS011;63326;45.088;7.658;2023-03-31T05:52:06;10.25;;;2.70;;
74799;SDS011;63326;45.088;7.658;2023-03-31T05:54:33;5.70;;;2.60;;
74799;SDS011;63326;45.088;7.658;2023-03-31T05:57:00;8.20;;;2.35;;
74799;SDS011;63326;45.088;7.658;2023-03-31T05:59:26;4.78;;;2.20;;
74799;SDS011;63326;45.088;7.658;2023-03-31T06:01:53;6.50;;;3.15;;
74799;SDS011;63326;45.088;7.658;2023-03-31T06:04:20;6.53;;;3.33;;
74799;SDS011;63326;45.088;7.658;2023-03-31T06:06:47;5.38;;;3.30;;
74799;SDS011;63326;45.088;7.658;2023-03-31T06:09:15;5.75;;;2.80;;
74799;SDS011;63326;45.088;7.658;2023-03-31T06:11:43;5.22;;;2.65;;
74799;SDS011;63326;45.088;7.658;2023-03-31T06:14:10;10.15;;;3.20;;
74799;SDS011;63326;45.088;7.658;2023-03-31T06:16:37;5.13;;;2.97;;
74799;SDS011;63326;45.088;7.658;2023-03-31T06:19:04;5.32;;;2.72;;
74799;SDS011;63326;45.088;7.658;2023-03-31T06:21:30;5.60;;;2.63;;
74799;SDS011;63326;45.088;7.658;2023-03-31T06:23:57;7.78;;;3.05;;
74799;SDS011;63326;45.088;7.658;2023-03-31T06:26:25;5.95;;;2.58;;
74799;SDS011;63326;45.088;7.658;2023-03-31T06:28:52;5.20;;;2.92;;
74799;SDS011;63326;45.088;7.658;2023-03-31T06:31:20;4.60;;;2.88;;
74799;SDS011;63326;45.088;7.658;2023-03-31T06:33:49;5.70;;;3.00;;
74799;SDS011;63326;45.088;7.658;2023-03-31T06:36:16;6.28;;;2.83;;
74799;SDS011;63326;45.088;7.658;2023-03-31T06:38:45;6.90;;;3.60;;
74799;SDS011;63326;45.088;7.658;2023-03-31T06:41:13;5.50;;;3.55;;
74799;SDS011;63326;45.088;7.658;2023-03-31T06:43:40;6.00;;;3.70;;
74799;SDS011;63326;45.088;7.658;2023-03-31T06:46:08;9.70;;;4.88;;
74799;SDS011;63326;45.088;7.658;2023-03-31T06:48:35;8.68;;;4.40;;
74799;SDS011;63326;45.088;7.658;2023-03-31T06:51:03;11.77;;;4.20;;
74799;SDS011;63326;45.088;7.658;2023-03-31T06:53:31;8.00;;;3.53;;
74799;SDS011;63326;45.088;7.658;2023-03-31T06:55:58;4.63;;;3.17;;
74799;SDS011;63326;45.088;7.658;2023-03-31T06:58:24;5.10;;;3.30;;
74799;SDS011;63326;45.088;7.658;2023-03-31T07:00:55;8.38;;;3.83;;
74799;SDS011;63326;45.088;7.658;2023-03-31T07:03:21;6.57;;;3.80;;
74799;SDS011;63326;45.088;7.658;2023-03-31T07:05:51;9.85;;;3.95;;
74799;SDS011;63326;45.088;7.658;2023-03-31T07:08:19;10.65;;;3.58;;
74799;SDS011;63326;45.088;7.658;2023-03-31T07:10:47;4.22;;;2.85;;
74799;SDS011;63326;45.088;7.658;2023-03-31T07:13:15;11.18;;;3.80;;
74799;SDS011;63326;45.088;7.658;2023-03-31T07:15:43;8.73;;;4.03;;
74799;SDS011;63326;45.088;7.658;2023-03-31T07:18:13;14.10;;;3.95;;
74799;SDS011;63326;45.088;7.658;2023-03-31T07:20:41;6.60;;;3.90;;
74799;SDS011;63326;45.088;7.658;2023-03-31T07:23:08;4.80;;;3.22;;
74799;SDS011;63326;45.088;7.658;2023-03-31T07:25:35;9.98;;;3.00;;
74799;SDS011;63326;45.088;7.658;2023-03-31T07:28:02;6.18;;;3.78;;
74799;SDS011;63326;45.088;7.658;2023-03-31T07:30:30;6.88;;;3.17;;
74799;SDS011;63326;45.088;7.658;2023-03-31T07:32:57;6.43;;;3.88;;
74799;SDS011;63326;45.088;7.658;2023-03-31T07:35:24;8.82;;;2.83;;
74799;SDS011;63326;45.088;7.658;2023-03-31T07:37:51;5.45;;;3.10;;
74799;SDS011;63326;45.088;7.658;2023-03-31T07:40:22;5.80;;;2.90;;
74799;SDS011;63326;45.088;7.658;2023-03-31T07:42:51;9.10;;;3.40;;
74799;SDS011;63326;45.088;7.658;2023-03-31T07:45:18;5.28;;;2.95;;
74799;SDS011;63326;45.088;7.658;2023-03-31T07:47:46;4.28;;;2.70;;
74799;SDS011;63326;45.088;7.658;2023-03-31T07:50:14;7.32;;;2.60;;
74799;SDS011;63326;45.088;7.658;2023-03-31T07:52:42;5.95;;;3.45;;
74799;SDS011;63326;45.088;7.658;2023-03-31T07:55:13;5.80;;;2.78;;
74799;SDS011;63326;45.088;7.658;2023-03-31T07:57:42;6.35;;;3.25;;
74799;SDS011;63326;45.088;7.658;2023-03-31T08:00:11;9.45;;;3.38;;
74799;SDS011;63326;45.088;7.658;2023-03-31T08:02:39;7.13;;;3.30;;
74799;SDS011;63326;45.088;7.658;2023-03-31T08:05:08;8.07;;;2.67;;
74799;SDS011;63326;45.088;7.658;2023-03-31T08:07:40;4.43;;;2.83;;
74799;SDS011;63326;45.088;7.658;2023-03-31T08:10:09;8.85;;;3.78;;
74799;SDS011;63326;45.088;7.658;2023-03-31T08:12:39;5.20;;;2.97;;
74799;SDS011;63326;45.088;7.658;2023-03-31T08:15:06;7.63;;;4.28;;
74799;SDS011;63326;45.088;7.658;2023-03-31T08:17:33;6.60;;;3.90;;
74799;SDS011;63326;45.088;7.658;2023-03-31T08:20:01;7.65;;;3.58;;
74799;SDS011;63326;45.088;7.658;2023-03-31T08:22:33;5.63;;;3.75;;
74799;SDS011;63326;45.088;7.658;2023-03-31T08:25:00;10.90;;;3.78;;
74799;SDS011;63326;45.088;7.658;2023-03-31T08:27:26;8.70;;;4.03;;
74799;SDS011;63326;45.088;7.658;2023-03-31T08:29:53;7.07;;;4.03;;
74799;SDS011;63326;45.088;7.658;2023-03-31T08:32:23;8.85;;;4.32;;
74799;SDS011;63326;45.088;7.658;2023-03-31T08:34:50;12.25;;;4.90;;
74799;SDS011;63326;45.088;7.658;2023-03-31T08:37:16;7.97;;;5.15;;
74799;SDS011;63326;45.088;7.658;2023-03-31T08:39:43;8.00;;;4.97;;
74799;SDS011;63326;45.088;7.658;2023-03-31T08:47:36;6.97;;;4.25;;
74799;SDS011;63326;45.088;7.658;2023-03-31T08:50:06;9.73;;;3.90;;
74799;SDS011;63326;45.088;7.658;2023-03-31T08:52:41;8.43;;;4.32;;
74799;SDS011;63326;45.088;7.658;2023-03-31T08:55:16;9.15;;;4.20;;
74799;SDS011;63326;45.088;7.658;2023-03-31T09:06:42;6.13;;;3.17;;
74799;SDS011;63326;45.088;7.658;2023-03-31T09:09:22;9.00;;;4.25;;
74799;SDS011;63326;45.088;7.658;2023-03-31T09:11:59;8.60;;;4.35;;
74799;SDS011;63326;45.088;7.658;2023-03-31T09:14:36;9.02;;;5.18;;
74799;SDS011;63326;45.088;7.658;2023-03-31T09:19:55;9.70;;;5.18;;
74799;SDS011;63326;45.088;7.658;2023-03-31T09:22:29;8.77;;;3.58;;
74799;SDS011;63326;45.088;7.658;2023-03-31T09:25:00;5.30;;;4.28;;
74799;SDS011;63326;45.088;7.658;2023-03-31T09:27:31;5.25;;;3.58;;
74799;SDS011;63326;45.088;7.658;2023-03-31T09:30:04;10.00;;;4.18;;
74799;SDS011;63326;45.088;7.658;2023-03-31T09:32:41;9.07;;;4.13;;
74799;SDS011;63326;45.088;7.658;2023-03-31T09:37:38;7.55;;;5.03;;
74799;SDS011;63326;45.088;7.658;2023-03-31T09:40:05;7.20;;;3.92;;
74799;SDS011;63326;45.088;7.658;2023-03-31T09:42:33;7.97;;;3.97;;
74799;SDS011;63326;45.088;7.658;2023-03-31T09:45:01;7.15;;;4.57;;
74799;SDS011;63326;45.088;7.658;2023-03-31T09:47:36;10.77;;;5.03;;
74799;SDS011;63326;45.088;7.658;2023-03-31T09:50:08;9.95;;;5.22;;
74799;SDS011;63326;45.088;7.658;2023-03-31T09:52:39;7.75;;;5.10;;
74799;SDS011;63326;45.088;7.658;2023-03-31T09:55:28;9.13;;;5.18;;
74799;SDS011;63326;45.088;7.658;2023-03-31T09:58:06;8.95;;;4.93;;
74799;SDS011;63326;45.088;7.658;2023-03-31T10:00:33;9.82;;;4.35;;
74799;SDS011;63326;45.088;7.658;2023-03-31T10:03:00;7.50;;;3.92;;
74799;SDS011;63326;45.088;7.658;2023-03-31T10:05:35;10.70;;;5.38;;
74799;SDS011;63326;45.088;7.658;2023-03-31T10:10:42;8.05;;;5.35;;
74799;SDS011;63326;45.088;7.658;2023-03-31T10:13:13;13.70;;;6.18;;
74799;SDS011;63326;45.088;7.658;2023-03-31T10:15:42;11.70;;;5.28;;
74799;SDS011;63326;45.088;7.658;2023-03-31T10:18:13;10.82;;;5.25;;
74799;SDS011;63326;45.088;7.658;2023-03-31T10:20:42;12.50;;;4.85;;
74799;SDS011;63326;45.088;7.658;2023-03-31T10:23:22;9.82;;;5.25;;
74799;SDS011;63326;45.088;7.658;2023-03-31T10:25:52;8.32;;;3.92;;
74799;SDS011;63326;45.088;7.658;2023-03-31T10:28:19;6.82;;;4.10;;
74799;SDS011;63326;45.088;7.658;2023-03-31T10:30:48;22.25;;;10.77;;
74799;SDS011;63326;45.088;7.658;2023-03-31T10:33:25;10.05;;;5.47;;
74799;SDS011;63326;45.088;7.658;2023-03-31T10:35:57;8.25;;;4.65;;
74799;SDS011;63326;45.088;7.658;2023-03-31T10:38:26;8.57;;;4.60;;
74799;SDS011;63326;45.088;7.658;2023-03-31T10:40:57;10.48;;;4.95;;
74799;SDS011;63326;45.088;7.658;2023-03-31T10:43:46;7.32;;;4.53;;
74799;SDS011;63326;45.088;7.658;2023-03-31T10:46:15;6.60;;;4.10;;
74799;SDS011;63326;45.088;7.658;2023-03-31T10:48:42;7.10;;;4.80;;
74799;SDS011;63326;45.088;7.658;2023-03-31T10:51:11;8.73;;;3.63;;
74799;SDS011;63326;45.088;7.658;2023-03-31T11:32:15;9.48;;;4.38;;
74799;SDS011;63326;45.088;7.658;2023-03-31T11:37:28;5.43;;;4.18;;
74799;SDS011;63326;45.088;7.658;2023-03-31T11:42:56;8.07;;;4.88;;
74799;SDS011;63326;45.088;7.658;2023-03-31T11:45:32;10.23;;;5.05;;
74799;SDS011;63326;45.088;7.658;2023-03-31T11:48:06;8.40;;;4.72;;
74799;SDS011;63326;45.088;7.658;2023-03-31T11:50:41;6.60;;;4.97;;
74799;SDS011;63326;45.088;7.658;2023-03-31T11:53:16;10.07;;;4.60;;
74799;SDS011;63326;45.088;7.658;2023-03-31T11:55:47;6.20;;;4.30;;
74799;SDS011;63326;45.088;7.658;2023-03-31T11:58:20;7.75;;;4.70;;
74799;SDS011;63326;45.088;7.658;2023-03-31T12:06:02;8.30;;;4.75;;
74799;SDS011;63326;45.088;7.658;2023-03-31T12:08:36;6.90;;;4.57;;
74799;SDS011;63326;45.088;7.658;2023-03-31T12:14:00;6.50;;;4.75;;
74799;SDS011;63326;45.088;7.658;2023-03-31T12:16:44;5.05;;;2.63;;
74799;SDS011;63326;45.088;7.658;2023-03-31T12:22:02;8.48;;;4.70;;
74799;SDS011;63326;45.088;7.658;2023-03-31T12:24:30;6.15;;;4.47;;
74799;SDS011;63326;45.088;7.658;2023-03-31T12:29:56;7.40;;;4.13;;
74799;SDS011;63326;45.088;7.658;2023-03-31T12:32:33;6.82;;;4.40;;
74799;SDS011;63326;45.088;7.658;2023-03-31T12:35:05;8.45;;;4.07;;
74799;SDS011;63326;45.088;7.658;2023-03-31T12:48:43;8.27;;;4.45;;
74799;SDS011;63326;45.088;7.658;2023-03-31T12:59:23;7.50;;;3.53;;
74799;SDS011;63326;45.088;7.658;2023-03-31T13:02:31;5.60;;;2.90;;
74799;SDS011;63326;45.088;7.658;2023-03-31T13:04:51;7.13;;;4.40;;
74799;SDS011;63326;45.088;7.658;2023-03-31T13:12:39;7.30;;;4.57;;
74799;SDS011;63326;45.088;7.658;2023-03-31T13:15:11;6.95;;;4.13;;
74799;SDS011;63326;45.088;7.658;2023-03-31T13:17:39;8.43;;;4.60;;
74799;SDS011;63326;45.088;7.658;2023-03-31T13:20:15;5.63;;;3.60;;
74799;SDS011;63326;45.088;7.658;2023-03-31T13:22:53;9.00;;;4.68;;
74799;SDS011;63326;45.088;7.658;2023-03-31T13:28:41;5.68;;;3.60;;
74799;SDS011;63326;45.088;7.658;2023-03-31T13:31:01;9.23;;;3.78;;
74799;SDS011;63326;45.088;7.658;2023-03-31T13:33:36;7.72;;;4.63;;
74799;SDS011;63326;45.088;7.658;2023-03-31T13:39:03;7.15;;;4.68;;
74799;SDS011;63326;45.088;7.658;2023-03-31T13:59:09;7.20;;;4.70;;
74799;SDS011;63326;45.088;7.658;2023-03-31T14:07:31;10.88;;;3.80;;
74799;SDS011;63326;45.088;7.658;2023-03-31T14:10:04;8.27;;;4.18;;
74799;SDS011;63326;45.088;7.658;2023-03-31T14:12:36;7.70;;;4.00;;
74799;SDS011;63326;45.088;7.658;2023-03-31T14:15:04;7.75;;;4.55;;
74799;SDS011;63326;45.088;7.658;2023-03-31T14:17:32;7.07;;;4.93;;
74799;SDS011;63326;45.088;7.658;2023-03-31T14:38:33;9.65;;;4.72;;
74799;SDS011;63326;45.088;7.658;2023-03-31T14:41:00;7.32;;;5.07;;
74799;SDS011;63326;45.088;7.658;2023-03-31T14:43:29;6.05;;;3.97;;
74799;SDS011;63326;45.088;7.658;2023-03-31T14:45:59;7.70;;;5.25;;
74799;SDS011;63326;45.088;7.658;2023-03-31T14:48:28;9.73;;;4.00;;
74799;SDS011;63326;45.088;7.658;2023-03-31T14:50:59;8.07;;;4.97;;
74799;SDS011;63326;45.088;7.658;2023-03-31T14:53:27;6.15;;;4.90;;
74799;SDS011;63326;45.088;7.658;2023-03-31T14:55:57;5.93;;;4.72;;
74799;SDS011;63326;45.088;7.658;2023-03-31T14:58:38;8.65;;;4.53;;
74799;SDS011;63326;45.088;7.658;2023-03-31T15:01:21;11.93;;;4.97;;
74799;SDS011;63326;45.088;7.658;2023-03-31T15:03:51;8.15;;;5.00;;
74799;SDS011;63326;45.088;7.658;2023-03-31T15:06:22;8.43;;;4.60;;
74799;SDS011;63326;45.088;7.658;2023-03-31T15:08:51;6.60;;;4.88;;
74799;SDS011;63326;45.088;7.658;2023-03-31T15:11:23;6.40;;;5.03;;
74799;SDS011;63326;45.088;7.658;2023-03-31T15:13:50;5.60;;;3.88;;
74799;SDS011;63326;45.088;7.658;2023-03-31T15:21:41;8.07;;;4.88;;
74799;SDS011;63326;45.088;7.658;2023-03-31T15:24:10;9.80;;;5.40;;
74799;SDS011;63326;45.088;7.658;2023-03-31T15:26:41;7.55;;;5.72;;
74799;SDS011;63326;45.088;7.658;2023-03-31T15:29:24;7.90;;;4.50;;
74799;SDS011;63326;45.088;7.658;2023-03-31T15:31:58;7.43;;;5.20;;
74799;SDS011;63326;45.088;7.658;2023-03-31T15:34:28;5.68;;;4.55;;
74799;SDS011;63326;45.088;7.658;2023-03-31T15:36:58;9.50;;;5.30;;
74799;SDS011;63326;45.088;7.658;2023-03-31T15:39:27;8.52;;;5.57;;
74799;SDS011;63326;45.088;7.658;2023-03-31T15:41:57;7.70;;;4.78;;
74799;SDS011;63326;45.088;7.658;2023-03-31T15:50:02;5.93;;;3.72;;
74799;SDS011;63326;45.088;7.658;2023-03-31T15:52:44;11.05;;;4.80;;
74799;SDS011;63326;45.088;7.658;2023-03-31T15:55:29;10.55;;;5.38;;
74799;SDS011;63326;45.088;7.658;2023-03-31T15:57:59;7.30;;;4.28;;
74799;SDS011;63326;45.088;7.658;2023-03-31T16:03:03;7.15;;;4.53;;
74799;SDS011;63326;45.088;7.658;2023-03-31T16:05:40;8.88;;;4.60;;
74799;SDS011;63326;45.088;7.658;2023-03-31T16:08:23;6.47;;;3.92;;
74799;SDS011;63326;45.088;7.658;2023-03-31T16:11:03;8.25;;;4.97;;
74799;SDS011;63326;45.088;7.658;2023-03-31T16:13:33;6.78;;;5.03;;
74799;SDS011;63326;45.088;7.658;2023-03-31T16:16:09;6.90;;;4.93;;
74799;SDS011;63326;45.088;7.658;2023-03-31T16:18:39;10.05;;;4.43;;
74799;SDS011;63326;45.088;7.658;2023-03-31T16:21:10;7.30;;;4.70;;
74799;SDS011;63326;45.088;7.658;2023-03-31T16:23:39;10.13;;;4.80;;
74799;SDS011;63326;45.088;7.658;2023-03-31T16:26:06;6.45;;;4.32;;
74799;SDS011;63326;45.088;7.658;2023-03-31T16:31:02;5.95;;;4.22;;
74799;SDS011;63326;45.088;7.658;2023-03-31T16:33:50;8.02;;;3.88;;
74799;SDS011;63326;45.088;7.658;2023-03-31T16:36:19;6.28;;;3.92;;
74799;SDS011;63326;45.088;7.658;2023-03-31T16:41:13;4.05;;;1.98;;
74799;SDS011;63326;45.088;7.658;2023-03-31T16:43:43;6.95;;;2.33;;
74799;SDS011;63326;45.088;7.658;2023-03-31T16:46:10;4.85;;;2.17;;
74799;SDS011;63326;45.088;7.658;2023-03-31T16:48:37;4.07;;;2.30;;
74799;SDS011;63326;45.088;7.658;2023-03-31T16:51:03;3.90;;;2.40;;
74799;SDS011;63326;45.088;7.658;2023-03-31T16:53:31;3.78;;;2.47;;
74799;SDS011;63326;45.088;7.658;2023-03-31T16:56:00;5.68;;;2.45;;
74799;SDS011;63326;45.088;7.658;2023-03-31T16:58:27;5.05;;;2.72;;
74799;SDS011;63326;45.088;7.658;2023-03-31T17:00:55;4.00;;;2.47;;
74799;SDS011;63326;45.088;7.658;2023-03-31T17:03:23;8.35;;;3.42;;
74799;SDS011;63326;45.088;7.658;2023-03-31T17:05:51;4.68;;;2.63;;
74799;SDS011;63326;45.088;7.658;2023-03-31T17:08:26;7.35;;;3.15;;
74799;SDS011;63326;45.088;7.658;2023-03-31T17:13:21;12.02;;;3.63;;
74799;SDS011;63326;45.088;7.658;2023-03-31T17:15:48;8.43;;;3.67;;
74799;SDS011;63326;45.088;7.658;2023-03-31T17:18:15;20.15;;;4.35;;
74799;SDS011;63326;45.088;7.658;2023-03-31T17:20:42;6.00;;;3.53;;
74799;SDS011;63326;45.088;7.658;2023-03-31T17:23:09;7.97;;;2.70;;
74799;SDS011;63326;45.088;7.658;2023-03-31T17:25:36;4.40;;;2.25;;
74799;SDS011;63326;45.088;7.658;2023-03-31T17:28:03;4.65;;;2.50;;
74799;SDS011;63326;45.088;7.658;2023-03-31T17:30:30;4.28;;;2.03;;
74799;SDS011;63326;45.088;7.658;2023-03-31T17:33:00;3.88;;;1.92;;
74799;SDS011;63326;45.088;7.658;2023-03-31T17:35:26;4.85;;;1.58;;
74799;SDS011;63326;45.088;7.658;2023-03-31T17:37:54;3.72;;;1.98;;
74799;SDS011;63326;45.088;7.658;2023-03-31T17:40:22;4.10;;;1.80;;
74799;SDS011;63326;45.088;7.658;2023-03-31T17:42:52;4.18;;;1.60;;
74799;SDS011;63326;45.088;7.658;2023-03-31T17:45:19;2.65;;;1.42;;
74799;SDS011;63326;45.088;7.658;2023-03-31T17:47:45;2.80;;;1.30;;
74799;SDS011;63326;45.088;7.658;2023-03-31T17:50:12;3.05;;;1.30;;
74799;SDS011;63326;45.088;7.658;2023-03-31T17:52:40;3.42;;;1.13;;
74799;SDS011;63326;45.088;7.658;2023-03-31T17:55:07;1.52;;;0.80;;
74799;SDS011;63326;45.088;7.658;2023-03-31T17:57:34;1.58;;;1.00;;
74799;SDS011;63326;45.088;7.658;2023-03-31T18:00:06;1.20;;;0.77;;
74799;SDS011;63326;45.088;7.658;2023-03-31T18:02:38;1.80;;;1.00;;
74799;SDS011;63326;45.088;7.658;2023-03-31T18:05:06;2.45;;;0.68;;
74799;SDS011;63326;45.088;7.658;2023-03-31T18:07:34;1.40;;;0.60;;
74799;SDS011;63326;45.088;7.658;2023-03-31T18:10:03;1.67;;;0.65;;
74799;SDS011;63326;45.088;7.658;2023-03-31T18:12:31;1.02;;;0.52;;
74799;SDS011;63326;45.088;7.658;2023-03-31T18:14:59;1.13;;;0.60;;
74799;SDS011;63326;45.088;7.658;2023-03-31T18:17:28;2.75;;;0.77;;
74799;SDS011;63326;45.088;7.658;2023-03-31T18:19:56;1.10;;;0.28;;
74799;SDS011;63326;45.088;7.658;2023-03-31T18:22:24;5.97;;;0.65;;
74799;SDS011;63326;45.088;7.658;2023-03-31T18:24:51;1.25;;;0.55;;
74799;SDS011;63326;45.088;7.658;2023-03-31T18:27:18;4.82;;;0.73;;
74799;SDS011;63326;45.088;7.658;2023-03-31T18:29:44;4.22;;;0.38;;
74799;SDS011;63326;45.088;7.658;2023-03-31T18:32:11;0.40;;;0.30;;
74799;SDS011;63326;45.088;7.658;2023-03-31T18:34:39;0.90;;;0.50;;
74799;SDS011;63326;45.088;7.658;2023-03-31T18:37:05;0.60;;;0.35;;
74799;SDS011;63326;45.088;7.658;2023-03-31T18:39:33;0.45;;;0.20;;
74799;SDS011;63326;45.088;7.658;2023-03-31T18:41:59;0.43;;;0.30;;
74799;SDS011;63326;45.088;7.658;2023-03-31T18:44:26;0.57;;;0.40;;
74799;SDS011;63326;45.088;7.658;2023-03-31T18:46:53;0.75;;;0.25;;
74799;SDS011;63326;45.088;7.658;2023-03-31T18:49:20;0.47;;;0.22;;
74799;SDS011;63326;45.088;7.658;2023-03-31T18:51:47;0.52;;;0.40;;